Time;durP1;ratioP1;P1;durP2;ratioP2;P2;SDS_P1;SDS_P2;PMS_P1;PMS_P2;Temp;Humidity;BMP_temperature;BMP_pressure;BME280_temperature;BME280_humidity;BME280_pressure;Samples;Min_cycle;Max_cycle;Signal;HPM_P1;HPM_P2
2021/01/27 00:00:44;;;;;;;;;;;;;;;-3.13;91.44;93184.81;1057186;56;20257;-83
2021/01/27 00:01:44;;;;;;;;;;;;;;;-3.14;91.67;93185.94;1057223;56;20243;-83
2021/01/27 00:02:45;;;;;;;;;;;;;;;-3.20;91.77;93182.03;1059551;56;20178;-82
2021/01/27 00:03:47;;;;;;;;;;;;;;;-3.22;91.51;93186.78;1059417;56;21228;-83
2021/01/27 00:04:47;;;;;;;;;;;;;;;-3.20;90.75;93181.25;1059406;56;20158;-82
2021/01/27 00:05:49;;;;;;;;;;;;;;;-3.14;91.14;93183.31;1061539;56;20240;-83
2021/01/27 00:06:49;;;;;;;;;;;;;;;-3.18;90.25;93185.06;1059321;56;20659;-81
2021/01/27 00:07:49;;;;;;;;;;;;;;;-3.16;91.19;93177.66;1057023;56;20143;-83
2021/01/27 00:08:50;;;;;;;;;;;;;;;-3.16;91.66;93187.34;1059462;56;21186;-84
2021/01/27 00:09:50;;;;;;;;;;;;;;;-3.17;90.65;93183.97;1059372;56;20193;-83
2021/01/27 00:10:50;;;;;;;;;;;;;;;-3.18;91.84;93177.22;1057369;56;20182;-82
2021/01/27 00:11:50;;;;;;;;;;;;;;;-3.20;91.08;93179.41;1057257;56;20266;-83
2021/01/27 00:12:51;;;;;;;;;;;;;;;-3.25;90.61;93171.00;1059529;56;20155;-82
2021/01/27 00:13:51;;;;;;;;;;;;;;;-3.25;91.08;93177.00;1059111;56;20553;-84
2021/01/27 00:14:51;;;;;;;;;;;;;;;-3.18;90.78;93171.22;1055087;56;20155;-81
2021/01/27 00:15:52;;;;;;;;;;;;;;;-3.19;89.84;93164.47;1057171;56;20150;-83
2021/01/27 00:16:52;;;;;;;;;;;;;;;-3.24;89.32;93172.56;1059342;56;20182;-82
2021/01/27 00:17:52;;;;;;;;;;;;;;;-3.31;89.51;93166.00;1059311;56;20565;-82
2021/01/27 00:18:53;;;;;;;;;;;;;;;-3.36;90.95;93168.84;1059276;56;20177;-82
2021/01/27 00:19:53;;;;;;;;;;;;;;;-3.37;90.83;93169.16;1059314;56;20159;-83
2021/01/27 00:20:53;;;;;;;;;;;;;;;-3.37;90.25;93162.09;1061412;56;20154;-83
2021/01/27 00:21:54;;;;;;;;;;;;;;;-3.41;90.18;93163.81;1059175;56;20557;-83
2021/01/27 00:22:54;;;;;;;;;;;;;;;-3.44;91.02;93166.31;1057329;56;20182;-83
2021/01/27 00:23:54;;;;;;;;;;;;;;;-3.45;90.83;93159.59;1059398;56;20158;-81
2021/01/27 00:24:55;;;;;;;;;;;;;;;-3.43;91.97;93167.84;1061337;56;20588;-83
2021/01/27 00:25:55;;;;;;;;;;;;;;;-3.47;91.12;93161.75;1061380;56;20154;-83
2021/01/27 00:26:55;;;;;;;;;;;;;;;-3.50;92.06;93160.56;1059278;56;20142;-83
2021/01/27 00:27:56;;;;;;;;;;;;;;;-3.50;91.96;93157.19;1059231;56;20182;-84
2021/01/27 00:28:56;;;;;;;;;;;;;;;-3.44;91.49;93164.47;1059262;56;20186;-83
2021/01/27 00:29:57;;;;;;;;;;;;;;;-3.56;91.26;93161.84;1061239;56;20629;-83
2021/01/27 00:30:57;;;;;;;;;;;;;;;-3.44;91.06;93159.25;1059215;56;20154;-82
2021/01/27 00:31:57;;;;;;;;;;;;;;;-3.51;90.94;93158.25;1059089;56;20579;-84
2021/01/27 00:32:58;;;;;;;;;;;;;;;-3.49;90.79;93154.25;1061459;56;20157;-83
2021/01/27 00:33:59;;;;;;;;;;;;;;;-3.56;90.37;93164.47;1063546;55;20162;-83
2021/01/27 00:34:59;;;;;;;;;;;;;;;-3.50;90.34;93157.19;1061330;56;20186;-82
2021/01/27 00:35:59;;;;;;;;;;;;;;;-3.56;90.41;93165.25;1059322;56;20170;-82
2021/01/27 00:37:00;;;;;;;;;;;;;;;-3.55;90.49;93158.94;1061365;56;20159;-84
2021/01/27 00:38:02;;;;;;;;;;;;;;;-3.52;90.82;93148.91;1061416;56;20142;-82
2021/01/27 00:39:03;;;;;;;;;;;;;;;-3.51;89.79;93155.66;1057060;56;20179;-83
2021/01/27 00:40:04;;;;;;;;;;;;;;;-3.59;89.96;93152.81;1057058;56;20140;-83
2021/01/27 00:41:04;;;;;;;;;;;;;;;-3.69;90.47;93161.06;1059184;56;20260;-83
2021/01/27 00:42:04;;;;;;;;;;;;;;;-3.72;90.46;93155.75;1057219;56;20178;-82
2021/01/27 00:43:05;;;;;;;;;;;;;;;-3.73;90.67;93155.00;1059160;56;20255;-83
2021/01/27 00:44:05;;;;;;;;;;;;;;;-3.75;90.51;93156.41;1059053;56;20166;-84
2021/01/27 00:45:06;;;;;;;;;;;;;;;-3.79;91.42;93153.66;1061397;56;20218;-83
2021/01/27 00:46:07;;;;;;;;;;;;;;;-3.80;91.24;93149.53;1058905;56;20261;-83
2021/01/27 00:47:07;;;;;;;;;;;;;;;-3.83;91.01;93145.72;1056989;56;20702;-83
2021/01/27 00:48:08;;;;;;;;;;;;;;;-3.77;91.07;93153.34;1056797;56;20269;-83
2021/01/27 00:49:08;;;;;;;;;;;;;;;-3.78;90.97;93146.59;1056818;56;20214;-83
2021/01/27 00:50:09;;;;;;;;;;;;;;;-3.83;91.85;93137.88;1059277;56;20170;-82
2021/01/27 00:51:10;;;;;;;;;;;;;;;-3.88;91.66;93135.47;1061412;56;20151;-82
2021/01/27 00:52:10;;;;;;;;;;;;;;;-3.82;91.72;93130.81;1063358;55;20146;-83
2021/01/27 00:53:10;;;;;;;;;;;;;;;-3.87;92.34;93123.19;1061257;56;20161;-84
2021/01/27 00:54:10;;;;;;;;;;;;;;;-3.83;92.12;93124.06;1057134;56;20595;-82
2021/01/27 00:55:11;;;;;;;;;;;;;;;-3.87;92.26;93125.78;1059193;56;20173;-81
2021/01/27 00:56:11;;;;;;;;;;;;;;;-3.72;92.68;93132.25;1059119;56;20627;-82
2021/01/27 00:57:12;;;;;;;;;;;;;;;-3.80;91.87;93128.66;1054978;56;20612;-85
2021/01/27 00:58:12;;;;;;;;;;;;;;;-3.82;91.16;93128.97;1059326;56;20583;-85
2021/01/27 00:59:12;;;;;;;;;;;;;;;-3.84;91.05;93122.53;1061478;55;21014;-83
2021/01/27 01:00:15;;;;;;;;;;;;;;;-3.92;91.36;93132.00;1059405;56;20200;-82
2021/01/27 01:01:16;;;;;;;;;;;;;;;-3.81;92.78;93124.53;1061293;56;20264;-84
2021/01/27 01:02:16;;;;;;;;;;;;;;;-3.84;93.33;93128.53;1061571;56;20146;-83
2021/01/27 01:03:17;;;;;;;;;;;;;;;-3.87;91.48;93128.41;1059103;56;20549;-83
2021/01/27 01:04:17;;;;;;;;;;;;;;;-3.95;90.90;93127.44;1059266;56;21076;-83
2021/01/27 01:05:22;;;;;;;;;;;;;;;-4.00;90.93;93125.00;1061259;56;20169;-83
2021/01/27 01:06:22;;;;;;;;;;;;;;;-3.94;91.17;93128.97;1059286;56;20173;-83
2021/01/27 01:07:22;;;;;;;;;;;;;;;-3.78;91.50;93123.84;1057118;56;20143;-85
2021/01/27 01:08:22;;;;;;;;;;;;;;;-3.88;91.16;93119.81;1059211;56;20169;-83
2021/01/27 01:09:23;;;;;;;;;;;;;;;-3.89;92.88;93117.53;1059229;56;20166;-83
2021/01/27 01:10:24;;;;;;;;;;;;;;;-4.01;91.35;93107.84;1059206;56;20556;-82
2021/01/27 01:11:25;;;;;;;;;;;;;;;-3.93;92.99;93106.97;1056725;56;20169;-82
2021/01/27 01:12:25;;;;;;;;;;;;;;;-4.06;92.76;93116.63;1056974;56;20656;-82
2021/01/27 01:13:26;;;;;;;;;;;;;;;-4.01;92.64;93109.69;1057001;56;20170;-82
2021/01/27 01:14:26;;;;;;;;;;;;;;;-4.02;92.73;93116.00;1061472;56;20146;-82
2021/01/27 01:15:28;;;;;;;;;;;;;;;-4.04;92.03;93108.47;1061273;56;21152;-83
2021/01/27 01:16:29;;;;;;;;;;;;;;;-4.05;92.02;93101.72;1061227;56;20653;-83
2021/01/27 01:17:29;;;;;;;;;;;;;;;-4.06;92.78;93105.44;1059226;56;20173;-83
2021/01/27 01:18:29;;;;;;;;;;;;;;;-4.03;93.64;93096.22;1057061;56;20591;-83
2021/01/27 01:19:30;;;;;;;;;;;;;;;-4.08;92.11;93099.78;1059264;56;20643;-83
2021/01/27 01:20:30;;;;;;;;;;;;;;;-4.23;92.35;93100.41;1061480;56;20177;-82
2021/01/27 01:21:30;;;;;;;;;;;;;;;-4.26;92.97;93101.78;1061201;56;20146;-82
2021/01/27 01:22:30;;;;;;;;;;;;;;;-4.26;92.43;93098.44;1061219;56;20146;-82
2021/01/27 01:23:31;;;;;;;;;;;;;;;-4.25;92.87;93098.13;1061239;56;20244;-83
2021/01/27 01:24:31;;;;;;;;;;;;;;;-4.23;92.63;93095.19;1056957;56;20155;-83
2021/01/27 01:25:32;;;;;;;;;;;;;;;-4.26;92.73;93098.44;1054819;56;20193;-83
2021/01/27 01:26:33;;;;;;;;;;;;;;;-4.33;91.84;93101.56;1054918;56;20155;-83
2021/01/27 01:27:33;;;;;;;;;;;;;;;-4.40;92.37;93104.69;1057216;56;20600;-83
2021/01/27 01:28:33;;;;;;;;;;;;;;;-4.40;92.89;93107.31;1061230;56;20233;-82
2021/01/27 01:29:34;;;;;;;;;;;;;;;-4.30;92.42;93106.16;1056804;56;20147;-82
2021/01/27 01:30:36;;;;;;;;;;;;;;;-4.41;92.17;93108.41;1059086;56;20162;-82
2021/01/27 01:31:36;;;;;;;;;;;;;;;-4.39;92.76;93108.06;1061086;56;20193;-83
2021/01/27 01:32:36;;;;;;;;;;;;;;;-4.47;92.66;93109.69;1059111;56;20651;-82
2021/01/27 01:33:37;;;;;;;;;;;;;;;-4.46;92.44;93113.06;1059058;56;20254;-82
2021/01/27 01:34:37;;;;;;;;;;;;;;;-4.47;92.77;93107.09;1056867;56;20154;-84
2021/01/27 01:35:38;;;;;;;;;;;;;;;-4.46;92.45;93111.22;1059044;56;20139;-83
2021/01/27 01:36:38;;;;;;;;;;;;;;;-4.47;92.94;93114.91;1058910;56;20147;-82
2021/01/27 01:37:38;;;;;;;;;;;;;;;-4.51;92.82;93103.59;1056737;56;20151;-83
2021/01/27 01:38:39;;;;;;;;;;;;;;;-4.54;92.34;93106.06;1059175;56;20654;-83
2021/01/27 01:39:40;;;;;;;;;;;;;;;-4.46;92.60;93105.25;1061141;56;20231;-83
2021/01/27 01:40:42;;;;;;;;;;;;;;;-4.48;93.01;93110.00;1061161;56;20166;-83
2021/01/27 01:41:42;;;;;;;;;;;;;;;-4.50;93.28;93106.97;1061026;56;20184;-82
2021/01/27 01:42:43;;;;;;;;;;;;;;;-4.58;93.09;93100.72;1059006;56;20186;-83
2021/01/27 01:43:43;;;;;;;;;;;;;;;-4.57;93.14;93108.22;1059147;56;20202;-84
2021/01/27 01:44:43;;;;;;;;;;;;;;;-4.48;93.71;93102.16;1061123;56;20225;-82
2021/01/27 01:45:43;;;;;;;;;;;;;;;-4.54;93.33;93100.84;1059055;56;20162;-83
2021/01/27 01:46:44;;;;;;;;;;;;;;;-4.54;92.97;93103.47;1057011;56;20190;-83
2021/01/27 01:47:44;;;;;;;;;;;;;;;-4.54;92.80;93099.00;1056824;56;20258;-82
2021/01/27 01:48:46;;;;;;;;;;;;;;;-4.53;93.01;93099.78;1059020;56;20620;-82
2021/01/27 01:49:47;;;;;;;;;;;;;;;-4.44;92.16;93100.44;1061070;56;20189;-84
2021/01/27 01:50:50;;;;;;;;;;;;;;;-4.54;92.56;93106.84;1061110;56;20650;-82
2021/01/27 01:51:50;;;;;;;;;;;;;;;-4.54;92.63;93101.63;1058974;56;20719;-83
2021/01/27 01:52:52;;;;;;;;;;;;;;;-4.46;92.32;93106.00;1054406;56;20190;-83
2021/01/27 01:53:55;;;;;;;;;;;;;;;-4.40;92.48;93093.50;1054642;56;20255;-83
2021/01/27 01:54:57;;;;;;;;;;;;;;;-4.53;92.14;93087.50;1056976;56;20257;-83
2021/01/27 01:55:59;;;;;;;;;;;;;;;-4.64;92.89;93081.16;1056771;56;20183;-82
2021/01/27 01:57:12;;;;;;;;;;;;;;;-4.61;92.44;93080.50;1056665;56;20151;-83
2021/01/27 01:58:13;;;;;;;;;;;;;;;-4.63;92.72;93073.00;1059897;56;20243;-83
2021/01/27 01:59:14;;;;;;;;;;;;;;;-4.72;92.34;93074.19;1061176;56;20220;-83
2021/01/27 02:00:15;;;;;;;;;;;;;;;-4.69;92.61;93076.16;1061258;56;20295;-83
2021/01/27 02:01:15;;;;;;;;;;;;;;;-4.68;92.62;93070.59;1060784;56;20186;-83
2021/01/27 02:02:15;;;;;;;;;;;;;;;-4.65;92.35;93069.97;1059035;56;20178;-85
2021/01/27 02:03:16;;;;;;;;;;;;;;;-4.73;93.07;93075.28;1061114;56;20147;-82
2021/01/27 02:04:17;;;;;;;;;;;;;;;-4.66;92.33;93068.44;1059007;56;20150;-84
2021/01/27 02:05:19;;;;;;;;;;;;;;;-4.68;93.08;93067.25;1059005;56;20159;-83
2021/01/27 02:06:20;;;;;;;;;;;;;;;-4.66;93.42;93062.47;1061215;56;20170;-82
2021/01/27 02:07:21;;;;;;;;;;;;;;;-4.71;93.52;93060.06;1058822;56;20256;-84
2021/01/27 02:08:21;;;;;;;;;;;;;;;-4.62;93.17;93060.72;1054433;56;20199;-82
2021/01/27 02:09:22;;;;;;;;;;;;;;;-4.62;92.75;93058.88;1059154;56;20135;-83
2021/01/27 02:10:23;;;;;;;;;;;;;;;-4.59;93.15;93062.72;1063214;55;20180;-82
2021/01/27 02:11:38;;;;;;;;;;;;;;;-4.63;93.14;93057.37;1059029;56;20147;-82
2021/01/27 02:12:57;;;;;;;;;;;;;;;-4.54;94.28;93054.69;1059405;56;20172;-84
2021/01/27 02:14:06;;;;;;;;;;;;;;;-4.48;94.55;93050.75;1061818;56;20717;-84
2021/01/27 02:15:13;;;;;;;;;;;;;;;-4.59;93.63;93053.03;1063601;55;20626;-82
2021/01/27 02:16:14;;;;;;;;;;;;;;;-4.57;92.12;93053.47;1058741;56;20198;-81
2021/01/27 02:17:32;;;;;;;;;;;;;;;-4.58;92.92;93054.56;1056891;56;20159;-83
2021/01/27 02:18:35;;;;;;;;;;;;;;;-4.60;92.69;93045.53;1059550;56;20177;-82
2021/01/27 02:19:50;;;;;;;;;;;;;;;-4.62;92.95;93047.69;1059058;56;20669;-82
2021/01/27 02:21:02;;;;;;;;;;;;;;;-4.63;93.83;93054.75;1057304;56;20154;-83
2021/01/27 02:22:21;;;;;;;;;;;;;;;-4.61;94.06;93044.00;1056992;56;21176;-86
2021/01/27 02:23:36;;;;;;;;;;;;;;;-4.60;93.23;93048.91;1059351;56;20154;-83
2021/01/27 02:24:48;;;;;;;;;;;;;;;-4.61;93.44;93055.22;1061559;56;20181;-83
2021/01/27 02:25:59;;;;;;;;;;;;;;;-4.60;93.79;93046.31;1061124;56;20258;-82
2021/01/27 02:26:59;;;;;;;;;;;;;;;-4.69;94.18;93044.88;1057049;56;20163;-83
2021/01/27 02:28:03;;;;;;;;;;;;;;;-4.69;93.50;93047.47;1056706;56;20691;-83
2021/01/27 02:29:03;;;;;;;;;;;;;;;-4.58;93.36;93038.91;1058961;56;20166;-83
2021/01/27 02:30:36;;;;;;;;;;;;;;;-4.62;94.35;93039.88;1056844;56;20163;-83
2021/01/27 02:31:47;;;;;;;;;;;;;;;-4.65;93.97;93043.16;1055324;56;20660;-83
2021/01/27 02:32:53;;;;;;;;;;;;;;;-4.63;93.30;93044.31;1055906;56;20181;-83
2021/01/27 02:34:12;;;;;;;;;;;;;;;-4.52;92.61;93036.88;1057001;56;20159;-83
2021/01/27 02:35:25;;;;;;;;;;;;;;;-4.64;92.41;93036.84;1059624;56;20620;-82
2021/01/27 02:36:31;;;;;;;;;;;;;;;-4.62;92.34;93037.25;1057086;56;20221;-83
2021/01/27 02:37:45;;;;;;;;;;;;;;;-4.69;93.37;93024.78;1059235;56;20155;-84
2021/01/27 02:38:59;;;;;;;;;;;;;;;-4.68;93.91;93026.28;1058866;56;20234;-83
2021/01/27 02:40:04;;;;;;;;;;;;;;;-4.78;93.09;93020.69;1059152;56;20173;-83
2021/01/27 02:41:15;;;;;;;;;;;;;;;-4.72;93.14;93035.06;1058288;56;21105;-83
2021/01/27 02:42:21;;;;;;;;;;;;;;;-4.71;92.42;93029.53;1059361;56;20243;-82
2021/01/27 02:43:31;;;;;;;;;;;;;;;-4.77;91.97;93033.44;1063230;55;20228;-82
2021/01/27 02:44:36;;;;;;;;;;;;;;;-4.77;92.48;93027.47;1063093;55;20177;-82
2021/01/27 02:45:40;;;;;;;;;;;;;;;-4.80;92.53;93026.25;1063222;55;20158;-82
2021/01/27 02:46:43;;;;;;;;;;;;;;;-4.78;92.32;93018.09;1059000;56;20174;-82
2021/01/27 02:47:50;;;;;;;;;;;;;;;-4.86;92.58;93019.72;1056753;56;20257;-84
2021/01/27 02:48:53;;;;;;;;;;;;;;;-4.93;92.76;93024.69;1056884;56;20177;-82
2021/01/27 02:49:58;;;;;;;;;;;;;;;-4.89;93.01;93020.34;1056591;56;20235;-84
2021/01/27 02:51:10;;;;;;;;;;;;;;;-4.87;93.42;93026.03;1056859;56;20182;-84
2021/01/27 02:52:12;;;;;;;;;;;;;;;-4.82;93.02;93025.81;1058051;56;20772;-83
2021/01/27 02:53:18;;;;;;;;;;;;;;;-4.83;93.01;93027.66;1056617;56;20158;-83
2021/01/27 02:54:21;;;;;;;;;;;;;;;-4.83;93.08;93024.28;1061118;56;20158;-83
2021/01/27 02:55:26;;;;;;;;;;;;;;;-4.90;93.00;93016.22;1058853;56;20202;-83
2021/01/27 02:56:34;;;;;;;;;;;;;;;-4.85;93.10;93013.41;1057042;56;20151;-82
2021/01/27 02:57:38;;;;;;;;;;;;;;;-4.82;92.73;93016.16;1058863;56;20177;-83
2021/01/27 02:58:42;;;;;;;;;;;;;;;-4.92;92.41;93019.13;1058819;56;20185;-83
2021/01/27 02:59:46;;;;;;;;;;;;;;;-5.00;92.85;93017.41;1054824;56;20656;-82
2021/01/27 03:00:50;;;;;;;;;;;;;;;-4.98;92.65;93023.03;1056752;56;20179;-83
2021/01/27 03:01:59;;;;;;;;;;;;;;;-4.96;93.05;93017.50;1056857;56;20173;-82
2021/01/27 03:03:05;;;;;;;;;;;;;;;-5.00;92.84;93030.44;1061071;56;20185;-83
2021/01/27 03:04:10;;;;;;;;;;;;;;;-5.01;92.91;93023.66;1056742;56;20269;-82
2021/01/27 03:05:11;;;;;;;;;;;;;;;-5.02;93.42;93019.53;1057193;56;20190;-83
2021/01/27 03:06:12;;;;;;;;;;;;;;;-4.98;93.28;93015.22;1059052;56;20185;-83
2021/01/27 03:07:14;;;;;;;;;;;;;;;-5.03;92.58;93018.03;1058677;56;20159;-85
2021/01/27 03:08:18;;;;;;;;;;;;;;;-5.02;92.58;93010.97;1058866;56;20186;-81
2021/01/27 03:09:25;;;;;;;;;;;;;;;-5.00;93.35;93012.19;1058892;56;20169;-83
2021/01/27 03:10:55;;;;;;;;;;;;;;;-4.95;93.68;93019.78;1058950;56;20158;-82
2021/01/27 03:11:55;;;;;;;;;;;;;;;-4.90;94.15;93018.84;1055272;56;20198;-84
2021/01/27 03:12:56;;;;;;;;;;;;;;;-4.97;93.64;93021.19;1054384;56;20155;-82
2021/01/27 03:13:56;;;;;;;;;;;;;;;-4.91;93.94;93017.31;1058482;56;20639;-82
2021/01/27 03:14:57;;;;;;;;;;;;;;;-4.97;93.46;93016.72;1058910;56;20158;-82
2021/01/27 03:15:58;;;;;;;;;;;;;;;-4.99;93.33;93013.69;1058850;56;20170;-83
2021/01/27 03:17:00;;;;;;;;;;;;;;;-4.87;93.78;93015.59;1056753;56;20199;-84
2021/01/27 03:18:02;;;;;;;;;;;;;;;-4.95;93.17;93019.78;1059118;56;20575;-83
2021/01/27 03:19:10;;;;;;;;;;;;;;;-4.91;93.11;93022.53;1058852;56;20155;-82
2021/01/27 03:20:22;;;;;;;;;;;;;;;-5.00;93.24;93022.59;1059066;56;20643;-84
2021/01/27 03:21:27;;;;;;;;;;;;;;;-4.88;94.56;93014.81;1057367;56;20644;-82
2021/01/27 03:22:42;;;;;;;;;;;;;;;-4.93;93.71;93020.22;1057084;56;20238;-82
2021/01/27 03:23:46;;;;;;;;;;;;;;;-4.89;93.04;93023.72;1059542;56;20158;-82
2021/01/27 03:24:56;;;;;;;;;;;;;;;-4.85;93.04;93021.25;1061029;56;20158;-82
2021/01/27 03:26:15;;;;;;;;;;;;;;;-4.88;92.30;93014.03;1058269;56;20174;-83
2021/01/27 03:27:18;;;;;;;;;;;;;;;-4.82;92.12;93013.53;1060218;56;20162;-82
2021/01/27 03:28:24;;;;;;;;;;;;;;;-4.85;92.17;93010.81;1061075;56;20308;-83
2021/01/27 03:29:27;;;;;;;;;;;;;;;-4.94;92.31;93016.09;1061289;56;20162;-83
2021/01/27 03:30:29;;;;;;;;;;;;;;;-4.92;93.14;93013.16;1060919;56;20279;-82
2021/01/27 03:31:29;;;;;;;;;;;;;;;-4.93;93.90;93011.66;1056982;56;20186;-88
2021/01/27 03:32:48;;;;;;;;;;;;;;;-4.92;93.72;93016.53;1058675;56;20662;-82
2021/01/27 03:33:53;;;;;;;;;;;;;;;-4.92;94.27;93018.38;1055936;56;20632;-83
2021/01/27 03:34:57;;;;;;;;;;;;;;;-4.90;94.12;93013.63;1055002;56;20167;-81
2021/01/27 03:36:00;;;;;;;;;;;;;;;-4.89;94.96;93015.12;1056774;56;20182;-84
2021/01/27 03:37:21;;;;;;;;;;;;;;;-4.89;94.65;93022.97;1058908;56;20225;-84
2021/01/27 03:38:30;;;;;;;;;;;;;;;-4.85;93.94;93014.16;1057410;56;20182;-84
2021/01/27 03:39:33;;;;;;;;;;;;;;;-4.90;93.47;93017.00;1059450;56;20263;-82
2021/01/27 03:40:34;;;;;;;;;;;;;;;-4.95;93.35;93019.78;1058708;56;20189;-83
2021/01/27 03:41:37;;;;;;;;;;;;;;;-4.92;93.24;93016.53;1056624;56;20170;-82
2021/01/27 03:42:56;;;;;;;;;;;;;;;-4.83;93.09;93017.25;1058813;56;20188;-82
2021/01/27 03:44:08;;;;;;;;;;;;;;;-4.80;92.15;93015.81;1061508;56;20699;-83
2021/01/27 03:45:09;;;;;;;;;;;;;;;-4.87;92.58;93016.34;1062904;56;20204;-84
2021/01/27 03:46:16;;;;;;;;;;;;;;;-4.89;93.02;93008.06;1063083;56;20161;-84
2021/01/27 03:47:19;;;;;;;;;;;;;;;-4.89;93.07;93013.28;1063289;56;20150;-82
2021/01/27 03:48:30;;;;;;;;;;;;;;;-4.85;93.26;93003.00;1058756;56;20185;-85
2021/01/27 03:49:32;;;;;;;;;;;;;;;-4.91;93.46;93005.03;1059115;56;20163;-84
2021/01/27 03:50:34;;;;;;;;;;;;;;;-4.86;93.63;93002.22;1056567;56;20722;-84
2021/01/27 03:51:37;;;;;;;;;;;;;;;-4.86;94.21;92998.88;1056822;56;20257;-85
2021/01/27 03:53:04;;;;;;;;;;;;;;;-4.86;93.98;93004.84;1060903;56;20180;-84
2021/01/27 03:54:06;;;;;;;;;;;;;;;-4.86;93.13;93004.84;1054536;56;20163;-82
2021/01/27 03:55:15;;;;;;;;;;;;;;;-4.77;93.32;92998.78;1056637;56;20159;-83
2021/01/27 03:56:20;;;;;;;;;;;;;;;-4.68;92.78;93002.06;1055083;56;20182;-83
2021/01/27 03:57:23;;;;;;;;;;;;;;;-4.74;92.88;93001.50;1059102;56;20620;-84
2021/01/27 03:58:35;;;;;;;;;;;;;;;-4.75;92.58;92999.97;1060836;56;20245;-83
2021/01/27 03:59:35;;;;;;;;;;;;;;;-4.81;92.90;92993.44;1059130;56;20625;-86
2021/01/27 04:00:35;;;;;;;;;;;;;;;-4.79;93.26;92993.88;1056789;56;20269;-83
2021/01/27 04:01:44;;;;;;;;;;;;;;;-4.82;93.62;92991.94;1058821;56;20194;-82
2021/01/27 04:02:44;;;;;;;;;;;;;;;-4.82;93.42;92995.28;1061269;56;20158;-81
2021/01/27 04:03:45;;;;;;;;;;;;;;;-4.78;94.03;92992.81;1058865;56;20285;-83
2021/01/27 04:04:45;;;;;;;;;;;;;;;-4.81;93.65;92990.84;1056719;56;20155;-82
2021/01/27 04:05:45;;;;;;;;;;;;;;;-4.71;93.37;92989.66;1056688;56;20182;-82
2021/01/27 04:06:46;;;;;;;;;;;;;;;-4.64;92.99;92987.28;1058908;56;20163;-82
2021/01/27 04:07:46;;;;;;;;;;;;;;;-4.67;92.63;92986.09;1061012;56;20189;-84
2021/01/27 04:08:46;;;;;;;;;;;;;;;-4.79;92.70;92986.06;1063345;56;20146;-82
2021/01/27 04:09:47;;;;;;;;;;;;;;;-4.76;93.39;92985.41;1058805;56;20146;-82
2021/01/27 04:10:47;;;;;;;;;;;;;;;-4.68;93.00;92987.19;1058818;56;20162;-81
2021/01/27 04:11:47;;;;;;;;;;;;;;;-4.67;93.60;92983.47;1058714;56;20706;-82
2021/01/27 04:12:48;;;;;;;;;;;;;;;-4.72;93.17;92980.31;1058988;56;20166;-83
2021/01/27 04:13:48;;;;;;;;;;;;;;;-4.70;92.92;92984.13;1060965;56;20142;-83
2021/01/27 04:14:48;;;;;;;;;;;;;;;-4.64;92.97;92974.25;1058779;56;20154;-83
2021/01/27 04:15:49;;;;;;;;;;;;;;;-4.68;92.64;92976.75;1058854;56;20190;-83
2021/01/27 04:16:49;;;;;;;;;;;;;;;-4.68;93.06;92968.16;1056813;56;20156;-84
2021/01/27 04:17:49;;;;;;;;;;;;;;;-4.64;92.26;92964.59;1061114;56;20201;-82
2021/01/27 04:18:50;;;;;;;;;;;;;;;-4.65;92.78;92973.50;1058859;56;20173;-82
2021/01/27 04:19:50;;;;;;;;;;;;;;;-4.71;93.02;92976.63;1058778;56;20154;-82
2021/01/27 04:20:50;;;;;;;;;;;;;;;-4.70;92.31;92968.47;1058900;56;20990;-83
2021/01/27 04:21:51;;;;;;;;;;;;;;;-4.75;92.84;92966.06;1056762;56;20175;-83
2021/01/27 04:22:51;;;;;;;;;;;;;;;-4.82;92.80;92963.25;1056765;56;20261;-82
2021/01/27 04:23:52;;;;;;;;;;;;;;;-4.84;92.71;92963.56;1060950;56;20169;-83
2021/01/27 04:24:52;;;;;;;;;;;;;;;-4.77;92.54;92957.81;1058634;56;20155;-80
2021/01/27 04:25:52;;;;;;;;;;;;;;;-4.75;92.83;92957.50;1058892;56;20169;-83
2021/01/27 04:26:52;;;;;;;;;;;;;;;-4.78;93.20;92956.31;1060912;56;20634;-84
2021/01/27 04:27:53;;;;;;;;;;;;;;;-4.77;93.53;92957.06;1056584;56;20154;-82
2021/01/27 04:28:53;;;;;;;;;;;;;;;-4.77;93.43;92955.22;1061070;56;20256;-84
2021/01/27 04:29:53;;;;;;;;;;;;;;;-4.75;93.40;92952.28;1063166;56;20154;-83
2021/01/27 04:30:54;;;;;;;;;;;;;;;-4.74;93.62;92953.78;1058640;56;20150;-83
2021/01/27 04:31:54;;;;;;;;;;;;;;;-4.68;92.75;92948.06;1056675;56;20154;-82
2021/01/27 04:32:55;;;;;;;;;;;;;;;-4.65;93.37;92949.28;1056734;56;20155;-82
2021/01/27 04:33:56;;;;;;;;;;;;;;;-4.64;93.46;92935.91;1056496;56;20592;-85
2021/01/27 04:34:56;;;;;;;;;;;;;;;-4.61;92.68;92934.47;1061037;56;20181;-84
2021/01/27 04:35:57;;;;;;;;;;;;;;;-4.62;92.53;92933.72;1060936;56;20238;-82
2021/01/27 04:36:57;;;;;;;;;;;;;;;-4.64;92.66;92942.97;1058813;56;20244;-83
2021/01/27 04:37:58;;;;;;;;;;;;;;;-4.57;93.69;92935.34;1060998;56;20177;-85
2021/01/27 04:38:58;;;;;;;;;;;;;;;-4.61;93.07;92935.25;1061139;56;20664;-82
2021/01/27 04:39:58;;;;;;;;;;;;;;;-4.56;92.50;92931.69;1058841;56;20159;-84
2021/01/27 04:40:59;;;;;;;;;;;;;;;-4.62;92.38;92941.53;1056736;56;20159;-82
2021/01/27 04:42:00;;;;;;;;;;;;;;;-4.62;93.16;92949.38;1059097;56;20197;-83
2021/01/27 04:43:02;;;;;;;;;;;;;;;-4.69;92.91;92946.53;1060881;56;20172;-84
2021/01/27 04:44:02;;;;;;;;;;;;;;;-4.64;92.84;92942.97;1061001;56;20155;-83
2021/01/27 04:45:04;;;;;;;;;;;;;;;-4.64;92.68;92946.34;1061137;56;20256;-82
2021/01/27 04:46:25;;;;;;;;;;;;;;;-4.59;92.58;92943.50;1057195;56;20167;-84
2021/01/27 04:47:25;;;;;;;;;;;;;;;-4.66;92.07;92945.88;1060603;56;20186;-81
2021/01/27 04:48:31;;;;;;;;;;;;;;;-4.59;92.07;92943.50;1059104;56;20154;-82
2021/01/27 04:49:36;;;;;;;;;;;;;;;-4.54;92.47;92939.16;1059451;56;20237;-82
2021/01/27 04:50:48;;;;;;;;;;;;;;;-4.57;92.07;92946.53;1061249;56;20648;-83
2021/01/27 04:51:51;;;;;;;;;;;;;;;-4.59;92.26;92929.72;1057377;56;20185;-83
2021/01/27 04:52:57;;;;;;;;;;;;;;;-4.54;93.70;92933.94;1058732;56;20265;-83
2021/01/27 04:54:09;;;;;;;;;;;;;;;-4.54;92.24;92934.72;1059167;56;20174;-81
2021/01/27 04:55:16;;;;;;;;;;;;;;;-4.51;91.93;92930.69;1061355;56;20650;-82
2021/01/27 04:56:34;;;;;;;;;;;;;;;-4.58;91.82;92934.59;1057216;56;20197;-84
2021/01/27 04:57:35;;;;;;;;;;;;;;;-4.54;92.23;92928.72;1057567;56;20151;-83
2021/01/27 04:58:53;;;;;;;;;;;;;;;-4.67;92.59;92931.31;1059237;56;20271;-82
2021/01/27 05:00:06;;;;;;;;;;;;;;;-4.72;92.81;92928.19;1059034;56;20185;-83
2021/01/27 05:01:15;;;;;;;;;;;;;;;-4.65;92.55;92918.75;1057890;56;20656;-82
2021/01/27 05:02:19;;;;;;;;;;;;;;;-4.64;93.10;92916.91;1063641;55;20161;-81
2021/01/27 05:03:35;;;;;;;;;;;;;;;-4.63;93.35;92913.94;1061236;56;20646;-83
2021/01/27 05:04:41;;;;;;;;;;;;;;;-4.63;92.65;92913.94;1059135;56;20167;-83
2021/01/27 05:05:43;;;;;;;;;;;;;;;-4.61;92.75;92922.22;1057434;56;20162;-83
2021/01/27 05:06:45;;;;;;;;;;;;;;;-4.64;92.97;92917.66;1059202;56;20150;-81
2021/01/27 05:07:46;;;;;;;;;;;;;;;-4.63;92.88;92913.94;1059001;56;20173;-82
2021/01/27 05:08:52;;;;;;;;;;;;;;;-4.61;92.45;92913.63;1059152;56;20151;-84
2021/01/27 05:09:52;;;;;;;;;;;;;;;-4.52;92.86;92921.34;1059319;56;20170;-82
2021/01/27 05:10:58;;;;;;;;;;;;;;;-4.40;91.53;92918.72;1059199;56;20214;-82
2021/01/27 05:12:00;;;;;;;;;;;;;;;-4.43;91.30;92920.16;1061347;56;20251;-82
2021/01/27 05:13:08;;;;;;;;;;;;;;;-4.52;92.36;92922.13;1058941;56;20179;-81
2021/01/27 05:14:09;;;;;;;;;;;;;;;-4.56;92.42;92921.25;1059483;56;20678;-83
2021/01/27 05:15:10;;;;;;;;;;;;;;;-4.53;92.96;92914.59;1063748;55;20165;-81
2021/01/27 05:16:14;;;;;;;;;;;;;;;-4.56;92.80;92911.56;1059083;56;20198;-83
2021/01/27 05:17:16;;;;;;;;;;;;;;;-4.50;93.00;92917.31;1059185;56;20263;-83
2021/01/27 05:18:17;;;;;;;;;;;;;;;-4.53;93.02;92915.38;1063309;55;20279;-83
2021/01/27 05:19:18;;;;;;;;;;;;;;;-4.58;92.38;92913.72;1061087;56;20626;-85
2021/01/27 05:20:19;;;;;;;;;;;;;;;-4.53;92.11;92917.97;1059181;56;20590;-82
2021/01/27 05:21:37;;;;;;;;;;;;;;;-4.52;92.61;92911.69;1056783;56;20222;-84
2021/01/27 05:22:38;;;;;;;;;;;;;;;-4.44;92.38;92912.66;1060424;56;20666;-84
2021/01/27 05:23:38;;;;;;;;;;;;;;;-4.44;91.56;92910.03;1063786;55;20158;-81
2021/01/27 05:24:39;;;;;;;;;;;;;;;-4.50;92.40;92914.72;1058941;56;20201;-83
2021/01/27 05:26:00;;;;;;;;;;;;;;;-4.50;92.00;92906.13;1059242;56;20167;-84
2021/01/27 05:27:04;;;;;;;;;;;;;;;-4.51;91.67;92908.00;1063613;55;20176;-82
2021/01/27 05:28:08;;;;;;;;;;;;;;;-4.46;92.07;92902.56;1058887;56;20182;-83
2021/01/27 05:29:20;;;;;;;;;;;;;;;-4.50;92.02;92898.31;1059007;56;20178;-82
2021/01/27 05:30:23;;;;;;;;;;;;;;;-4.56;91.85;92895.16;1059411;56;20167;-83
2021/01/27 05:31:43;;;;;;;;;;;;;;;-4.47;91.61;92901.03;1059012;56;20238;-82